Christoval, Texas
Current Conditions -  °F | °C
As of 6:32 AM on Friday 24 Oct 2014 (Local Time) from KSJT Reporting Station
Haze Haze  
Wind Chill: 51°   Ceiling: 600
Heat Index: 51°   Visibility: 0.75mi
Dew Point: 50°   Wind: 0mph
Humidity: 96%   Direction: NA
Pressure: 30.14"   Gusts: NA
Location:  31.19°N, 100.5°W
Report Text: KSJT 241132Z AUTO 00000KT 3/4SM BR VV006 11/10 A3014 RMK AO2 T01060100 RVRNO
Loading
Personal Weather Stations






























Interactive Weather Map
Tropical Storm Tracking
New forecast layout! Learn more

10-Day Weather Forecast

Advertisements
Track Severe Weather on mobile